createdAt,value
2023-03-06T00:00:41.359Z,13.50
2023-03-06T00:03:20.073Z,16.38
2023-03-06T00:05:50.226Z,14.95
2023-03-06T00:08:18.436Z,13.85
2023-03-06T00:10:47.101Z,13.85
2023-03-06T00:13:16.784Z,15.50
2023-03-06T00:15:45.488Z,16.05
2023-03-06T00:18:13.834Z,16.50
2023-03-06T00:20:43.583Z,19.92
2023-03-06T00:23:13.313Z,17.85
2023-03-06T00:25:44.183Z,18.85
2023-03-06T00:28:15.023Z,21.33
2023-03-06T00:30:43.993Z,18.13
2023-03-06T00:33:12.361Z,19.20
2023-03-06T00:35:41.215Z,22.95
2023-03-06T00:38:13.047Z,21.60
2023-03-06T00:40:41.865Z,20.75
2023-03-06T00:43:10.080Z,21.10
2023-03-06T00:45:38.699Z,18.92
2023-03-06T00:48:07.208Z,18.45
2023-03-06T00:50:36.322Z,19.23
2023-03-06T00:53:04.572Z,18.67
2023-03-06T00:55:34.504Z,18.67
2023-03-06T00:58:02.839Z,18.27
2023-03-06T01:00:31.276Z,18.13
2023-03-06T01:02:59.650Z,17.63
2023-03-06T01:05:28.304Z,17.60
2023-03-06T01:07:56.777Z,16.88
2023-03-06T01:10:25.235Z,16.65
2023-03-06T01:12:55.102Z,15.95
2023-03-06T01:15:24.146Z,15.80
2023-03-06T01:17:54.272Z,15.95
2023-03-06T01:20:22.968Z,17.53
2023-03-06T01:22:51.248Z,16.30
2023-03-06T01:25:19.741Z,17.63
2023-03-06T01:27:47.932Z,16.45
2023-03-06T01:30:18.062Z,18.10
2023-03-06T01:32:46.506Z,16.60
2023-03-06T01:35:15.398Z,16.55
2023-03-06T01:37:43.629Z,18.10
2023-03-06T01:40:14.338Z,18.85
2023-03-06T01:42:43.218Z,19.13
2023-03-06T01:45:45.147Z,18.75
2023-03-06T01:50:43.240Z,17.80
2023-03-06T01:53:11.728Z,18.48
2023-03-06T01:55:40.683Z,19.38
2023-03-06T01:58:11.193Z,19.10
2023-03-06T02:00:39.857Z,19.13
2023-03-06T02:03:11.013Z,20.45
2023-03-06T02:05:41.752Z,21.55
2023-03-06T02:08:11.456Z,21.77
2023-03-06T02:10:41.986Z,22.50
2023-03-06T02:13:10.229Z,23.75
2023-03-06T02:15:38.812Z,22.52
2023-03-06T02:18:07.282Z,22.70
2023-03-06T02:20:40.966Z,21.80
2023-03-06T02:23:12.402Z,21.88
2023-03-06T02:25:44.136Z,21.25
2023-03-06T02:28:15.133Z,23.85
2023-03-06T02:33:13.455Z,23.27
2023-03-06T02:35:45.353Z,24.48
2023-03-06T02:38:16.462Z,23.70
2023-03-06T02:40:49.260Z,24.17
2023-03-06T02:43:20.570Z,25.33
2023-03-06T02:45:51.312Z,25.08
2023-03-06T02:48:20.401Z,24.77
2023-03-06T02:50:49.413Z,22.83
2023-03-06T02:53:19.851Z,22.52
2023-03-06T02:55:50.898Z,21.92
2023-03-06T02:58:20.643Z,23.52
2023-03-06T03:00:49.853Z,22.75
2023-03-06T03:03:18.320Z,22.35
2023-03-06T03:05:47.157Z,23.48
2023-03-06T03:08:15.474Z,23.17
2023-03-06T03:10:44.120Z,23.15
2023-03-06T03:13:13.732Z,22.88
2023-03-06T03:15:42.370Z,20.90
2023-03-06T03:18:11.939Z,21.88
2023-03-06T03:20:43.187Z,21.15
2023-03-06T03:23:11.529Z,20.92
2023-03-06T03:25:40.085Z,21.02
2023-03-06T03:28:08.262Z,19.67
2023-03-06T03:30:38.250Z,21.95
2023-03-06T03:33:06.695Z,20.58
2023-03-06T03:35:35.392Z,20.63
2023-03-06T03:38:03.753Z,22.95
2023-03-06T03:40:32.391Z,20.73
2023-03-06T03:43:00.674Z,21.55
2023-03-06T03:45:29.308Z,20.98
2023-03-06T03:47:58.984Z,22.52
2023-03-06T03:50:27.894Z,21.38
2023-03-06T03:52:56.235Z,21.40
2023-03-06T03:55:24.798Z,19.63
2023-03-06T03:57:53.120Z,20.80
2023-03-06T04:00:22.010Z,20.33
2023-03-06T04:02:50.357Z,21.00
2023-03-06T04:05:20.305Z,19.08
2023-03-06T04:07:48.673Z,18.42
2023-03-06T04:10:17.386Z,20.88
2023-03-06T04:12:45.838Z,19.98
2023-03-06T04:15:14.371Z,17.95
2023-03-06T04:17:42.654Z,18.73
2023-03-06T04:20:12.464Z,17.08
2023-03-06T04:22:42.286Z,17.48
2023-03-06T04:25:11.175Z,17.65
2023-03-06T04:27:39.467Z,17.10
2023-03-06T04:30:09.527Z,17.85
2023-03-06T04:32:37.958Z,17.83
2023-03-06T04:35:07.647Z,17.48
2023-03-06T04:37:36.105Z,16.70
2023-03-06T04:40:07.254Z,16.35
2023-03-06T04:42:35.613Z,15.73
2023-03-06T04:45:04.382Z,15.70
2023-03-06T04:47:32.564Z,14.60
2023-03-06T04:50:01.551Z,16.35
2023-03-06T04:52:29.938Z,15.75
2023-03-06T04:54:58.827Z,15.43
2023-03-06T04:57:28.482Z,15.85
2023-03-06T04:59:57.019Z,15.10
2023-03-06T05:02:25.476Z,15.00
2023-03-06T05:04:54.018Z,14.57
2023-03-06T05:07:22.412Z,16.73
2023-03-06T05:09:51.025Z,17.08
2023-03-06T05:12:19.219Z,18.52
2023-03-06T05:14:49.391Z,18.70
2023-03-06T05:17:17.649Z,18.20
2023-03-06T05:19:46.261Z,19.05
2023-03-06T05:22:14.443Z,18.38
2023-03-06T05:24:42.973Z,18.30
2023-03-06T05:27:11.223Z,21.15
2023-03-06T05:29:39.846Z,22.10
2023-03-06T05:32:10.141Z,23.42
2023-03-06T05:34:38.737Z,26.35
2023-03-06T05:37:07.150Z,26.60
2023-03-06T05:39:35.665Z,27.05
2023-03-06T05:42:04.123Z,26.83
2023-03-06T05:44:33.524Z,27.75
2023-03-06T05:47:01.928Z,27.92
2023-03-06T05:49:36.898Z,25.20
2023-03-06T05:52:06.244Z,25.02
2023-03-06T05:54:36.045Z,25.77
2023-03-06T05:57:05.359Z,25.30
2023-03-06T05:59:34.118Z,23.95
2023-03-06T06:02:04.122Z,22.05
2023-03-06T06:04:34.035Z,21.80
2023-03-06T06:07:02.781Z,20.52
2023-03-06T06:09:31.333Z,19.67
2023-03-06T06:12:01.910Z,17.60
2023-03-06T06:14:30.576Z,18.55
2023-03-06T06:16:58.844Z,17.67
2023-03-06T06:19:30.012Z,18.10
2023-03-06T06:22:02.608Z,18.40
2023-03-06T06:24:31.937Z,15.95
2023-03-06T06:27:03.667Z,16.98
2023-03-06T06:29:32.775Z,15.63
2023-03-06T06:32:02.206Z,16.30
2023-03-06T06:34:31.932Z,14.43
2023-03-06T06:37:01.628Z,13.13
2023-03-06T06:39:30.548Z,13.38
2023-03-06T06:42:16.061Z,13.02
2023-03-06T06:44:47.266Z,13.48
2023-03-06T06:47:23.101Z,13.32
2023-03-06T06:49:53.362Z,12.52
2023-03-06T06:52:23.358Z,12.20
2023-03-06T06:54:52.055Z,11.77
2023-03-06T06:57:20.473Z,12.38
2023-03-06T06:59:50.160Z,12.23
2023-03-06T07:02:20.179Z,12.68
2023-03-06T07:05:02.415Z,12.45
2023-03-06T07:07:34.961Z,12.68
2023-03-06T07:10:05.684Z,11.57
2023-03-06T07:12:35.289Z,11.85
2023-03-06T07:15:04.981Z,12.30
2023-03-06T07:17:33.335Z,11.75
2023-03-06T07:20:01.985Z,13.05
2023-03-06T07:22:35.853Z,11.52
2023-03-06T07:25:12.260Z,10.68
2023-03-06T07:27:40.480Z,11.67
2023-03-06T07:30:10.578Z,11.00
2023-03-06T07:32:38.915Z,11.30
2023-03-06T07:35:19.741Z,11.70
2023-03-06T07:40:19.761Z,11.50
2023-03-06T07:42:48.310Z,11.27
2023-03-06T07:45:17.504Z,15.13
2023-03-06T07:47:46.415Z,11.68
2023-03-06T07:50:15.189Z,16.73
2023-03-06T07:52:43.460Z,17.17
2023-03-06T07:55:13.054Z,22.33
2023-03-06T07:57:42.885Z,13.80
2023-03-06T08:00:14.166Z,19.02
2023-03-06T08:02:43.567Z,11.63
2023-03-06T08:05:15.396Z,13.98
2023-03-06T08:10:14.992Z,10.75
2023-03-06T08:12:45.120Z,11.90
2023-03-06T08:15:14.568Z,11.13
2023-03-06T08:17:42.937Z,10.55
2023-03-06T08:20:14.468Z,10.07
2023-03-06T08:22:42.945Z,11.07
2023-03-06T08:25:13.455Z,10.65
2023-03-06T08:27:41.768Z,10.70
2023-03-06T08:30:13.460Z,10.77
2023-03-06T08:35:10.452Z,11.45
2023-03-06T08:37:38.740Z,10.15
2023-03-06T08:40:08.666Z,12.18
2023-03-06T08:42:36.892Z,13.13
2023-03-06T08:45:06.714Z,16.33
2023-03-06T08:47:38.094Z,17.50
2023-03-06T08:50:07.154Z,13.25
2023-03-06T08:52:35.731Z,16.67
2023-03-06T08:55:05.338Z,14.70
2023-03-06T08:57:33.761Z,12.90
2023-03-06T09:00:02.535Z,10.05
2023-03-06T09:02:31.788Z,12.43
2023-03-06T09:05:02.271Z,9.60
2023-03-06T09:07:31.593Z,8.27
2023-03-06T09:10:00.429Z,10.05
2023-03-06T09:12:30.709Z,9.65
2023-03-06T09:14:59.584Z,7.68
2023-03-06T09:17:28.167Z,8.35
2023-03-06T09:19:56.955Z,7.82
2023-03-06T09:22:26.962Z,7.88
2023-03-06T09:24:55.690Z,7.00
2023-03-06T09:27:23.901Z,7.97
2023-03-06T09:29:52.606Z,7.50
2023-03-06T09:32:20.877Z,7.22
2023-03-06T09:34:49.822Z,7.55
2023-03-06T09:37:18.569Z,6.82
2023-03-06T09:39:48.700Z,6.97
2023-03-06T09:42:19.094Z,7.22
2023-03-06T09:44:52.448Z,8.10
2023-03-06T09:47:36.885Z,7.18
2023-03-06T09:50:29.670Z,8.68
2023-03-06T09:53:09.747Z,7.05
2023-03-06T09:55:40.440Z,7.75
2023-03-06T09:58:16.040Z,6.93
2023-03-06T10:00:48.390Z,7.22
2023-03-06T10:03:23.966Z,6.30
2023-03-06T10:05:55.197Z,7.55
2023-03-06T10:08:27.520Z,7.80
2023-03-06T10:11:02.294Z,15.90
2023-03-06T10:13:38.232Z,18.73
2023-03-06T10:16:24.444Z,10.05
2023-03-06T10:18:53.116Z,8.20
2023-03-06T10:21:34.215Z,7.55
2023-03-06T10:24:08.516Z,7.55
2023-03-06T10:26:41.703Z,6.80
2023-03-06T10:29:24.024Z,7.15
2023-03-06T10:31:58.328Z,7.38
2023-03-06T10:34:30.850Z,6.45
2023-03-06T10:37:03.086Z,7.20
2023-03-06T10:39:31.631Z,6.85
2023-03-06T10:42:01.599Z,6.82
2023-03-06T10:44:33.030Z,6.65
2023-03-06T10:47:26.242Z,6.55
2023-03-06T10:49:59.698Z,5.90
2023-03-06T10:52:31.632Z,5.00
2023-03-06T10:55:24.499Z,5.25
2023-03-06T10:57:55.049Z,5.50
2023-03-06T11:00:41.098Z,6.22
2023-03-06T11:03:23.042Z,4.97
2023-03-06T11:06:00.152Z,4.90
2023-03-06T11:08:29.825Z,4.80
2023-03-06T11:11:00.984Z,4.78
2023-03-06T11:16:03.285Z,4.18
2023-03-06T11:18:36.406Z,4.57
2023-03-06T11:21:09.172Z,5.95
2023-03-06T11:23:42.370Z,4.97
2023-03-06T11:26:32.914Z,10.48
2023-03-06T11:29:14.758Z,9.35
2023-03-06T11:31:48.644Z,5.97
2023-03-06T11:34:21.539Z,7.10
2023-03-06T11:36:53.320Z,7.50
2023-03-06T11:39:27.937Z,6.43
2023-03-06T11:42:02.817Z,5.88
2023-03-06T11:44:43.167Z,5.50
2023-03-06T11:47:18.055Z,5.00
2023-03-06T11:49:48.365Z,7.05
2023-03-06T11:52:22.929Z,8.70
2023-03-06T11:54:55.587Z,6.65
2023-03-06T11:57:27.391Z,6.47
2023-03-06T12:00:15.779Z,5.88
2023-03-06T12:03:00.642Z,7.03
2023-03-06T12:05:38.671Z,7.10
2023-03-06T12:08:18.658Z,6.10
2023-03-06T12:10:51.809Z,8.38
2023-03-06T12:13:43.985Z,9.50
2023-03-06T12:16:55.722Z,6.85
2023-03-06T12:19:37.903Z,4.80
2023-03-06T12:22:20.348Z,5.57
2023-03-06T12:25:00.776Z,5.22
2023-03-06T12:27:34.964Z,7.35
2023-03-06T12:30:25.158Z,18.30
2023-03-06T12:33:04.058Z,9.82
2023-03-06T12:35:52.540Z,5.95
2023-03-06T12:38:42.651Z,5.53
2023-03-06T12:41:21.338Z,2.90
2023-03-06T12:43:59.867Z,3.45
2023-03-06T12:46:30.578Z,3.50
2023-03-06T12:49:04.884Z,4.80
2023-03-06T12:51:33.770Z,6.03
2023-03-06T12:54:03.744Z,3.08
2023-03-06T12:56:32.698Z,3.05
2023-03-06T12:59:02.795Z,3.33
2023-03-06T13:01:58.528Z,3.30
2023-03-06T13:04:42.124Z,2.88
2023-03-06T13:07:26.398Z,3.40
2023-03-06T13:10:04.083Z,3.63
2023-03-06T13:13:01.154Z,3.50
2023-03-06T13:15:41.485Z,4.68
2023-03-06T13:18:56.035Z,4.25
2023-03-06T13:22:10.360Z,3.50
2023-03-06T13:24:40.100Z,4.30
2023-03-06T13:27:11.227Z,4.30
2023-03-06T13:30:07.489Z,4.13
2023-03-06T13:32:37.436Z,4.18
2023-03-06T13:35:47.485Z,4.20
2023-03-06T13:38:34.088Z,4.20
2023-03-06T13:41:43.162Z,4.78
2023-03-06T13:44:46.082Z,8.20
2023-03-06T13:48:02.472Z,6.50
2023-03-06T13:50:38.154Z,6.63
2023-03-06T13:53:42.692Z,14.88
2023-03-06T13:56:35.410Z,12.02
2023-03-06T13:59:24.342Z,7.97
2023-03-06T14:02:00.060Z,6.32
2023-03-06T14:04:38.269Z,6.97
2023-03-06T14:07:26.783Z,9.50
2023-03-06T14:10:12.667Z,8.18
2023-03-06T14:12:43.598Z,6.10
2023-03-06T14:15:20.419Z,5.82
2023-03-06T14:17:55.630Z,7.85
2023-03-06T14:20:28.956Z,6.72
2023-03-06T14:23:16.574Z,5.53
2023-03-06T14:25:46.565Z,6.18
2023-03-06T14:28:25.820Z,7.15
2023-03-06T14:30:56.671Z,8.55
2023-03-06T14:33:32.630Z,8.70
2023-03-06T14:36:03.528Z,5.72
2023-03-06T14:38:36.906Z,6.40
2023-03-06T14:41:07.123Z,5.05
2023-03-06T14:43:35.641Z,5.75
2023-03-06T14:46:07.011Z,5.63
2023-03-06T14:48:41.938Z,6.03
2023-03-06T14:51:17.669Z,6.05
2023-03-06T14:53:48.302Z,5.68
2023-03-06T14:56:19.752Z,5.78
2023-03-06T14:58:56.998Z,7.65
2023-03-06T15:01:32.568Z,8.30
2023-03-06T15:04:02.145Z,8.40
2023-03-06T15:06:34.591Z,8.57
2023-03-06T15:09:07.940Z,7.47
2023-03-06T15:11:53.758Z,7.55
2023-03-06T15:14:24.456Z,8.35
2023-03-06T15:16:54.067Z,8.27
2023-03-06T15:19:23.506Z,8.82
2023-03-06T15:21:52.575Z,8.73
2023-03-06T15:24:33.876Z,6.97
2023-03-06T15:27:03.706Z,6.30
2023-03-06T15:29:32.802Z,5.60
2023-03-06T15:32:31.297Z,5.30
2023-03-06T15:35:28.677Z,6.47
2023-03-06T15:37:57.318Z,6.45
2023-03-06T15:40:28.447Z,8.02
2023-03-06T15:42:57.119Z,6.38
2023-03-06T15:45:26.817Z,9.82
2023-03-06T15:47:56.831Z,10.65
2023-03-06T15:50:27.022Z,9.10
2023-03-06T15:52:57.477Z,8.50
2023-03-06T15:55:26.963Z,10.95
2023-03-06T15:57:57.704Z,13.00
2023-03-06T16:00:28.788Z,12.48
2023-03-06T16:02:58.969Z,8.32
2023-03-06T16:05:28.419Z,13.77
2023-03-06T16:07:57.304Z,9.90
2023-03-06T16:10:27.397Z,11.35
2023-03-06T16:12:57.673Z,12.15
2023-03-06T16:15:29.178Z,13.25
2023-03-06T16:17:59.864Z,14.45
2023-03-06T16:20:30.088Z,17.05
2023-03-06T16:22:58.570Z,13.65
2023-03-06T16:25:28.674Z,14.32
2023-03-06T16:27:59.095Z,16.23
2023-03-06T16:30:29.968Z,20.48
2023-03-06T16:32:59.954Z,16.67
2023-03-06T16:35:29.015Z,28.40
2023-03-06T16:37:57.270Z,14.75
2023-03-06T16:40:27.621Z,14.13
2023-03-06T16:42:56.751Z,13.93
2023-03-06T16:45:25.913Z,14.18
2023-03-06T16:47:54.541Z,14.27
2023-03-06T16:50:26.787Z,27.55
2023-03-06T16:52:56.351Z,15.35
2023-03-06T16:55:26.597Z,14.48
2023-03-06T16:57:55.689Z,16.48
2023-03-06T17:00:25.000Z,15.45
2023-03-06T17:02:53.784Z,33.85
2023-03-06T17:05:22.551Z,32.03
2023-03-06T17:07:52.174Z,18.48
2023-03-06T17:10:22.751Z,16.67
2023-03-06T17:12:51.223Z,14.73
2023-03-06T17:15:19.846Z,15.70
2023-03-06T17:17:48.714Z,14.15
2023-03-06T17:20:17.703Z,17.20
2023-03-06T17:22:46.121Z,18.35
2023-03-06T17:25:16.672Z,13.70
2023-03-06T17:27:44.989Z,18.90
2023-03-06T17:30:14.100Z,15.55
2023-03-06T17:32:42.531Z,27.30
2023-03-06T17:35:11.085Z,26.60
2023-03-06T17:37:39.401Z,15.48
2023-03-06T17:40:10.119Z,25.27
2023-03-06T17:42:39.692Z,18.07
2023-03-06T17:45:11.255Z,14.98
2023-03-06T17:47:39.497Z,17.50
2023-03-06T17:50:08.907Z,17.15
2023-03-06T17:52:37.537Z,18.38
2023-03-06T17:55:07.145Z,14.30
2023-03-06T17:57:35.493Z,17.42
2023-03-06T18:00:06.974Z,16.23
2023-03-06T18:02:35.170Z,16.55
2023-03-06T18:05:04.073Z,27.30
2023-03-06T18:07:32.548Z,20.55
2023-03-06T18:10:01.102Z,18.63
2023-03-06T18:12:29.556Z,18.60
2023-03-06T18:14:57.991Z,19.92
2023-03-06T18:17:27.604Z,18.73
2023-03-06T18:19:57.163Z,17.00
2023-03-06T18:22:25.407Z,18.33
2023-03-06T18:24:54.032Z,20.00
2023-03-06T18:27:22.304Z,18.65
2023-03-06T18:29:52.254Z,17.40
2023-03-06T18:32:20.577Z,21.63
2023-03-06T18:34:51.856Z,25.42
2023-03-06T18:37:20.093Z,22.60
2023-03-06T18:39:49.079Z,29.38
2023-03-06T18:42:17.294Z,21.05
2023-03-06T18:44:47.912Z,25.52
2023-03-06T18:47:16.452Z,22.95
2023-03-06T18:49:46.400Z,22.02
2023-03-06T18:52:15.991Z,18.90
2023-03-06T18:54:44.594Z,24.45
2023-03-06T18:57:12.818Z,24.98
2023-03-06T18:59:41.293Z,24.67
2023-03-06T19:02:11.283Z,25.50
2023-03-06T19:04:39.863Z,23.25
2023-03-06T19:07:08.186Z,19.90
2023-03-06T19:09:38.145Z,19.77
2023-03-06T19:12:07.365Z,22.17
2023-03-06T19:14:36.446Z,20.80
2023-03-06T19:17:04.725Z,21.08
2023-03-06T19:19:33.504Z,22.05
2023-03-06T19:22:02.088Z,19.52
2023-03-06T19:24:30.657Z,20.85
2023-03-06T19:27:00.292Z,20.13
2023-03-06T19:29:28.903Z,19.90
2023-03-06T19:31:58.945Z,21.33
2023-03-06T19:34:27.632Z,19.50
2023-03-06T19:36:55.967Z,19.90
2023-03-06T19:39:24.465Z,20.90
2023-03-06T19:41:53.087Z,20.08
2023-03-06T19:44:23.341Z,20.63
2023-03-06T19:46:51.594Z,20.33
2023-03-06T19:49:22.354Z,20.92
2023-03-06T19:51:50.563Z,20.17
2023-03-06T19:54:23.458Z,19.45
2023-03-06T19:56:51.966Z,21.63
2023-03-06T19:59:22.026Z,19.50
2023-03-06T20:01:50.546Z,19.23
2023-03-06T20:04:19.220Z,20.13
2023-03-06T20:06:48.438Z,20.15
2023-03-06T20:09:17.320Z,22.17
2023-03-06T20:11:46.027Z,25.33
2023-03-06T20:14:14.669Z,22.95
2023-03-06T20:16:44.337Z,21.63
2023-03-06T20:19:13.227Z,21.90
2023-03-06T20:21:41.508Z,20.25
2023-03-06T20:24:16.689Z,20.20
2023-03-06T20:26:45.405Z,19.83
2023-03-06T20:29:14.155Z,18.58
2023-03-06T20:31:42.625Z,18.80
2023-03-06T20:34:12.718Z,18.65
2023-03-06T20:36:41.536Z,18.27
2023-03-06T20:39:12.231Z,18.20
2023-03-06T20:41:41.199Z,17.13
2023-03-06T20:44:13.456Z,18.45
2023-03-06T20:46:42.005Z,17.98
2023-03-06T20:49:13.744Z,18.10
2023-03-06T20:51:42.523Z,18.50
2023-03-06T20:54:12.907Z,18.25
2023-03-06T20:56:41.921Z,17.13
2023-03-06T20:59:12.486Z,17.58
2023-03-06T21:01:42.511Z,18.73
2023-03-06T21:04:14.050Z,19.00
2023-03-06T21:06:45.409Z,18.25
2023-03-06T21:09:14.591Z,18.70
2023-03-06T21:11:43.170Z,18.77
2023-03-06T21:14:13.297Z,18.98
2023-03-06T21:16:41.587Z,19.10
2023-03-06T21:19:11.233Z,19.00
2023-03-06T21:21:41.113Z,19.77
2023-03-06T21:24:09.668Z,19.48
2023-03-06T21:26:38.004Z,20.70
2023-03-06T21:29:06.837Z,19.00
2023-03-06T21:31:35.188Z,19.20
2023-03-06T21:34:05.552Z,19.80
2023-03-06T21:36:34.297Z,18.95
2023-03-06T21:39:06.562Z,18.45
2023-03-06T21:41:34.922Z,18.70
2023-03-06T21:44:05.226Z,20.85
2023-03-06T21:46:33.888Z,19.30
2023-03-06T21:49:04.040Z,18.20
2023-03-06T21:51:33.006Z,18.63
2023-03-06T21:54:02.168Z,16.50
2023-03-06T21:56:33.558Z,16.73
2023-03-06T21:59:02.688Z,17.88
2023-03-06T22:01:31.442Z,17.33
2023-03-06T22:04:00.206Z,16.20
2023-03-06T22:06:31.341Z,17.60
2023-03-06T22:11:31.402Z,17.45
2023-03-06T22:14:01.529Z,17.48
2023-03-06T22:16:30.153Z,16.30
2023-03-06T22:18:59.328Z,17.13
2023-03-06T22:21:27.896Z,16.45
2023-03-06T22:23:58.640Z,17.67
2023-03-06T22:26:27.674Z,17.92
2023-03-06T22:28:56.180Z,18.65
2023-03-06T22:31:27.390Z,19.30
2023-03-06T22:33:57.406Z,20.85
2023-03-06T22:36:26.006Z,20.17
2023-03-06T22:38:56.730Z,20.20
2023-03-06T22:41:25.845Z,20.58
2023-03-06T22:43:56.686Z,20.70
2023-03-06T22:46:27.259Z,20.75
2023-03-06T22:48:57.058Z,20.50
2023-03-06T22:51:25.533Z,21.00
2023-03-06T22:53:54.150Z,20.75
2023-03-06T22:56:23.291Z,21.15
2023-03-06T22:58:52.080Z,21.10
2023-03-06T23:01:22.613Z,21.10
2023-03-06T23:03:54.252Z,23.77
2023-03-06T23:06:24.796Z,24.85
2023-03-06T23:08:55.000Z,25.88
2023-03-06T23:11:24.233Z,25.67
2023-03-06T23:13:53.027Z,24.42
2023-03-06T23:16:21.678Z,23.85
2023-03-06T23:18:50.169Z,21.27
2023-03-06T23:21:20.827Z,21.95
2023-03-06T23:23:50.392Z,21.98
2023-03-06T23:26:20.353Z,20.77
2023-03-06T23:28:48.841Z,20.88
2023-03-06T23:31:18.506Z,24.50
2023-03-06T23:33:47.213Z,22.55
2023-03-06T23:36:17.141Z,21.15
2023-03-06T23:38:47.682Z,20.35
2023-03-06T23:41:18.411Z,20.45
2023-03-06T23:43:47.166Z,21.30
2023-03-06T23:46:16.132Z,19.67
2023-03-06T23:48:45.340Z,18.75
2023-03-06T23:51:15.870Z,20.05
2023-03-06T23:53:44.615Z,20.75
2023-03-06T23:56:14.739Z,19.45
2023-03-06T23:58:43.254Z,19.53
